Time;durP1;ratioP1;P1;durP2;ratioP2;P2;SDS_P1;SDS_P2;PMS_P1;PMS_P2;Temp;Humidity;BMP_temperature;BMP_pressure;BME280_temperature;BME280_humidity;BME280_pressure;Samples;Min_cycle;Max_cycle;Signal;HPM_P1;HPM_P2
2023/07/25 00:01:14;;;;;;;8.98;4.00;;;;;;;;;;4974164;28;20042;-68
2023/07/25 00:03:41;;;;;;;12.13;4.38;;;;;;;;;;4974289;28;20054;-69
2023/07/25 00:06:06;;;;;;;10.00;4.35;;;;;;;;;;4973963;28;20085;-68
2023/07/25 00:08:32;;;;;;;14.90;4.75;;;;;;;;;;4974155;28;20471;-68
2023/07/25 00:10:58;;;;;;;11.77;4.43;;;;;;;;;;4973681;28;20038;-69
2023/07/25 00:13:23;;;;;;;10.50;4.07;;;;;;;;;;4973121;28;20046;-69
2023/07/25 00:15:51;;;;;;;13.05;4.20;;;;;;;;;;4973990;28;20074;-68
2023/07/25 00:18:17;;;;;;;10.80;4.03;;;;;;;;;;4974309;28;20031;-68
2023/07/25 00:20:42;;;;;;;12.68;4.00;;;;;;;;;;4973787;28;20549;-68
2023/07/25 00:23:08;;;;;;;13.65;3.78;;;;;;;;;;4972882;28;20043;-69
2023/07/25 00:25:33;;;;;;;11.57;3.83;;;;;;;;;;4972591;28;20039;-69
2023/07/25 00:27:59;;;;;;;9.85;3.55;;;;;;;;;;4973643;28;20031;-68
2023/07/25 00:30:24;;;;;;;8.02;3.85;;;;;;;;;;4973427;28;20101;-69
2023/07/25 00:32:50;;;;;;;14.07;4.10;;;;;;;;;;4973764;28;20046;-69
2023/07/25 00:35:15;;;;;;;10.25;4.47;;;;;;;;;;4973765;28;20039;-69
2023/07/25 00:37:40;;;;;;;9.95;3.92;;;;;;;;;;4956677;28;20030;-69
2023/07/25 00:40:06;;;;;;;11.50;4.28;;;;;;;;;;4973641;28;20471;-69
2023/07/25 00:42:31;;;;;;;7.15;4.07;;;;;;;;;;4974020;28;20130;-68
2023/07/25 00:44:57;;;;;;;9.93;4.13;;;;;;;;;;4973549;28;20042;-69
2023/07/25 00:47:22;;;;;;;8.98;3.75;;;;;;;;;;4974138;28;20030;-69
2023/07/25 00:49:49;;;;;;;10.23;3.88;;;;;;;;;;4963189;28;20451;-68
2023/07/25 00:52:15;;;;;;;14.32;3.90;;;;;;;;;;4973931;28;20054;-69
2023/07/25 00:54:47;;;;;;;8.05;3.92;;;;;;;;;;4977212;28;20038;-69
2023/07/25 00:57:13;;;;;;;14.40;4.25;;;;;;;;;;4977534;28;20050;-69
2023/07/25 00:59:38;;;;;;;16.60;4.03;;;;;;;;;;4977057;28;20050;-68
2023/07/25 01:02:03;;;;;;;14.70;4.10;;;;;;;;;;4976841;28;20042;-68
2023/07/25 01:04:29;;;;;;;8.13;3.75;;;;;;;;;;4977184;28;20074;-68
2023/07/25 01:06:55;;;;;;;16.30;4.68;;;;;;;;;;4977269;28;20046;-69
2023/07/25 01:09:39;;;;;;;15.82;4.70;;;;;;;;;;4975191;28;20035;-68
2023/07/25 01:12:06;;;;;;;7.07;3.35;;;;;;;;;;4974938;28;20686;-69
2023/07/25 01:14:32;;;;;;;8.95;3.67;;;;;;;;;;4977091;28;20114;-69
2023/07/25 01:16:59;;;;;;;16.48;4.32;;;;;;;;;;4977064;28;20031;-69
2023/07/25 01:19:28;;;;;;;8.57;3.50;;;;;;;;;;4975794;28;20038;-68
2023/07/25 01:21:53;;;;;;;11.25;4.18;;;;;;;;;;4976996;28;20038;-68
2023/07/25 01:24:19;;;;;;;15.27;3.38;;;;;;;;;;4976644;28;20039;-69
2023/07/25 01:26:44;;;;;;;8.68;3.88;;;;;;;;;;4976885;28;20105;-68
2023/07/25 01:29:09;;;;;;;7.40;3.22;;;;;;;;;;4976171;28;20057;-68
2023/07/25 01:31:35;;;;;;;13.75;3.92;;;;;;;;;;4976655;28;20407;-69
2023/07/25 01:34:00;;;;;;;13.75;3.60;;;;;;;;;;4976493;28;20114;-69
2023/07/25 01:36:25;;;;;;;7.47;3.58;;;;;;;;;;4976772;28;20042;-68
2023/07/25 01:38:51;;;;;;;15.93;4.00;;;;;;;;;;4976599;28;20038;-68
2023/07/25 01:41:16;;;;;;;11.40;3.53;;;;;;;;;;4976454;28;20042;-68
2023/07/25 01:43:41;;;;;;;12.23;3.75;;;;;;;;;;4976623;28;20041;-69
2023/07/25 01:46:07;;;;;;;9.52;3.67;;;;;;;;;;4975195;28;20041;-68
2023/07/25 01:48:32;;;;;;;9.57;3.30;;;;;;;;;;4976460;28;20113;-68
2023/07/25 01:50:57;;;;;;;9.82;3.83;;;;;;;;;;4975027;28;20085;-69
2023/07/25 01:53:23;;;;;;;14.65;3.40;;;;;;;;;;4976137;28;20582;-69
2023/07/25 01:55:48;;;;;;;9.70;3.45;;;;;;;;;;4976415;28;20041;-68
2023/07/25 01:58:13;;;;;;;10.40;3.40;;;;;;;;;;4976061;28;20113;-68
2023/07/25 02:00:39;;;;;;;9.63;3.70;;;;;;;;;;4976012;28;20077;-68
2023/07/25 02:03:04;;;;;;;10.07;4.10;;;;;;;;;;4975219;28;20070;-69
2023/07/25 02:05:29;;;;;;;10.18;3.40;;;;;;;;;;4975601;28;20049;-68
2023/07/25 02:07:54;;;;;;;14.25;3.67;;;;;;;;;;4976345;28;20042;-69
2023/07/25 02:10:20;;;;;;;7.40;3.20;;;;;;;;;;4975975;28;20045;-68
2023/07/25 02:12:45;;;;;;;6.60;3.33;;;;;;;;;;4976254;28;20106;-69
2023/07/25 02:15:10;;;;;;;12.32;3.28;;;;;;;;;;4975583;28;20047;-68
2023/07/25 02:17:36;;;;;;;9.50;3.47;;;;;;;;;;4976161;28;20118;-69
2023/07/25 02:20:02;;;;;;;7.53;3.45;;;;;;;;;;4975672;28;20034;-69
2023/07/25 02:22:27;;;;;;;14.80;3.60;;;;;;;;;;4975958;28;20540;-68
2023/07/25 02:24:52;;;;;;;12.73;3.30;;;;;;;;;;4975321;28;20047;-69
2023/07/25 02:27:18;;;;;;;12.52;3.33;;;;;;;;;;4975743;28;20034;-69
2023/07/25 02:29:43;;;;;;;7.20;3.45;;;;;;;;;;4975829;28;20031;-69
2023/07/25 02:32:08;;;;;;;15.00;3.65;;;;;;;;;;4975366;28;20042;-68
2023/07/25 02:34:34;;;;;;;7.05;3.65;;;;;;;;;;4975178;28;20038;-68
2023/07/25 02:36:59;;;;;;;7.22;3.25;;;;;;;;;;4975642;28;20038;-68
2023/07/25 02:39:24;;;;;;;16.10;3.25;;;;;;;;;;4974112;28;20058;-68
2023/07/25 02:41:50;;;;;;;9.70;3.40;;;;;;;;;;4975233;28;20045;-69
2023/07/25 02:44:15;;;;;;;6.40;2.45;;;;;;;;;;4973738;28;20046;-69
2023/07/25 02:46:40;;;;;;;8.20;3.28;;;;;;;;;;4975529;28;20042;-69
2023/07/25 02:49:06;;;;;;;8.63;3.13;;;;;;;;;;4975249;28;20050;-68
2023/07/25 02:51:32;;;;;;;8.38;2.70;;;;;;;;;;4975441;28;20039;-68
2023/07/25 02:53:57;;;;;;;8.75;3.22;;;;;;;;;;4975011;28;20116;-69
2023/07/25 02:56:22;;;;;;;10.30;3.03;;;;;;;;;;4975332;28;20034;-68
2023/07/25 02:58:48;;;;;;;7.05;3.17;;;;;;;;;;4973368;28;20058;-69
2023/07/25 03:01:14;;;;;;;10.80;3.35;;;;;;;;;;4975109;28;20058;-69
2023/07/25 03:03:39;;;;;;;7.72;3.40;;;;;;;;;;4974771;28;20034;-69
2023/07/25 03:06:04;;;;;;;14.15;3.55;;;;;;;;;;4974899;28;20035;-69
2023/07/25 03:08:29;;;;;;;6.45;3.03;;;;;;;;;;4974842;28;20074;-69
2023/07/25 03:10:55;;;;;;;12.63;3.15;;;;;;;;;;4974702;28;20035;-68
2023/07/25 03:13:20;;;;;;;6.97;2.45;;;;;;;;;;4975001;28;20082;-68
2023/07/25 03:15:46;;;;;;;11.40;3.47;;;;;;;;;;4974285;28;20043;-69
2023/07/25 03:18:11;;;;;;;7.80;2.95;;;;;;;;;;4974492;28;20043;-68
2023/07/25 03:20:36;;;;;;;5.55;2.83;;;;;;;;;;4974783;28;20424;-69
2023/07/25 03:23:02;;;;;;;8.77;3.30;;;;;;;;;;4974603;28;20039;-68
2023/07/25 03:25:27;;;;;;;11.35;3.03;;;;;;;;;;4973914;28;20034;-68
2023/07/25 03:27:52;;;;;;;8.07;3.08;;;;;;;;;;4974861;28;20043;-68
2023/07/25 03:30:18;;;;;;;13.63;3.80;;;;;;;;;;4974236;28;20078;-69
2023/07/25 03:32:43;;;;;;;4.78;2.90;;;;;;;;;;4974360;28;20062;-68
2023/07/25 03:35:09;;;;;;;10.25;3.80;;;;;;;;;;4973176;28;20073;-69
2023/07/25 03:37:34;;;;;;;9.07;3.35;;;;;;;;;;4974776;28;20051;-69
2023/07/25 03:39:59;;;;;;;14.52;3.65;;;;;;;;;;4974175;28;20583;-69
2023/07/25 03:42:24;;;;;;;7.35;2.97;;;;;;;;;;4973765;28;20678;-68
2023/07/25 03:44:51;;;;;;;11.13;3.90;;;;;;;;;;4974419;28;20456;-68
2023/07/25 03:47:16;;;;;;;8.45;2.97;;;;;;;;;;4974631;28;20089;-68
2023/07/25 03:49:41;;;;;;;5.70;3.03;;;;;;;;;;4974225;28;20042;-68
2023/07/25 03:52:07;;;;;;;8.40;2.83;;;;;;;;;;4974510;28;20105;-68
2023/07/25 03:54:32;;;;;;;9.93;3.13;;;;;;;;;;4974386;28;20031;-69
2023/07/25 03:56:58;;;;;;;6.68;2.97;;;;;;;;;;4972514;28;20047;-68
2023/07/25 03:59:23;;;;;;;6.45;2.85;;;;;;;;;;4974144;28;20041;-69
2023/07/25 04:01:48;;;;;;;5.20;2.17;;;;;;;;;;4974424;28;20403;-69
2023/07/25 04:04:14;;;;;;;6.38;2.17;;;;;;;;;;4972279;28;20519;-69
2023/07/25 04:06:39;;;;;;;7.80;2.70;;;;;;;;;;4974016;28;20121;-68
2023/07/25 04:09:05;;;;;;;6.20;2.45;;;;;;;;;;4973772;28;20042;-69
2023/07/25 04:11:31;;;;;;;5.20;2.65;;;;;;;;;;4973766;28;20056;-68
2023/07/25 04:13:56;;;;;;;6.38;2.53;;;;;;;;;;4973957;28;20039;-69
2023/07/25 04:16:22;;;;;;;7.00;2.53;;;;;;;;;;5005324;28;20035;-69
2023/07/25 04:18:47;;;;;;;18.17;2.60;;;;;;;;;;4972834;28;20041;-69
2023/07/25 04:21:13;;;;;;;11.30;2.55;;;;;;;;;;4973712;28;20043;-69
2023/07/25 04:23:38;;;;;;;11.50;2.60;;;;;;;;;;4972518;28;20026;-69
2023/07/25 04:26:03;;;;;;;12.43;2.95;;;;;;;;;;4973597;28;20047;-68
2023/07/25 04:28:29;;;;;;;4.40;2.20;;;;;;;;;;4975012;28;20046;-69
2023/07/25 04:30:54;;;;;;;10.73;2.75;;;;;;;;;;4977922;28;20030;-68
2023/07/25 04:33:19;;;;;;;5.82;2.45;;;;;;;;;;4977107;28;20042;-69
2023/07/25 04:35:45;;;;;;;14.18;3.00;;;;;;;;;;4977752;28;20046;-69
2023/07/25 04:38:12;;;;;;;7.50;2.75;;;;;;;;;;4975071;28;20390;-69
2023/07/25 04:40:37;;;;;;;13.32;3.22;;;;;;;;;;4977561;28;20053;-69
2023/07/25 04:43:02;;;;;;;8.02;2.95;;;;;;;;;;4977705;28;20031;-69
2023/07/25 04:45:28;;;;;;;9.35;2.83;;;;;;;;;;4977292;28;20035;-68
2023/07/25 04:47:54;;;;;;;5.82;2.67;;;;;;;;;;4977857;28;20537;-69
2023/07/25 04:50:19;;;;;;;7.07;3.35;;;;;;;;;;4976230;28;20070;-68
2023/07/25 04:52:44;;;;;;;7.45;2.92;;;;;;;;;;4977441;28;20050;-69
2023/07/25 04:55:10;;;;;;;6.10;3.35;;;;;;;;;;4977483;28;20394;-69
2023/07/25 04:57:35;;;;;;;11.20;3.05;;;;;;;;;;4977652;28;20494;-69
2023/07/25 05:00:00;;;;;;;5.78;3.03;;;;;;;;;;4977321;28;20455;-68
2023/07/25 05:02:26;;;;;;;5.07;2.85;;;;;;;;;;4977287;28;20061;-69
2023/07/25 05:04:51;;;;;;;11.38;3.10;;;;;;;;;;4976590;28;20129;-68
2023/07/25 05:07:17;;;;;;;6.75;2.85;;;;;;;;;;4977240;28;20117;-69
2023/07/25 05:09:42;;;;;;;12.05;3.00;;;;;;;;;;4975305;28;20043;-69
2023/07/25 05:12:12;;;;;;;14.32;3.38;;;;;;;;;;5008395;28;20046;-69
2023/07/25 05:14:37;;;;;;;5.78;2.78;;;;;;;;;;4976787;28;20038;-69
2023/07/25 05:17:03;;;;;;;7.93;2.78;;;;;;;;;;4977275;28;20046;-69
2023/07/25 05:19:29;;;;;;;6.72;3.03;;;;;;;;;;4976769;28;20101;-68
2023/07/25 05:21:54;;;;;;;13.98;3.08;;;;;;;;;;4976752;28;20031;-69
2023/07/25 05:24:19;;;;;;;8.88;2.92;;;;;;;;;;4975354;28;20038;-69
2023/07/25 05:26:44;;;;;;;6.47;2.78;;;;;;;;;;4975528;28;20463;-69
2023/07/25 05:29:10;;;;;;;8.30;3.33;;;;;;;;;;4976430;28;20494;-69
2023/07/25 05:31:35;;;;;;;9.63;3.03;;;;;;;;;;4976790;28;20045;-69
2023/07/25 05:34:00;;;;;;;9.45;3.30;;;;;;;;;;4975351;28;20069;-69
2023/07/25 05:36:26;;;;;;;4.75;2.47;;;;;;;;;;4976644;28;20035;-69
2023/07/25 05:38:51;;;;;;;7.95;1.90;;;;;;;;;;4975924;28;20041;-69
2023/07/25 05:41:17;;;;;;;8.75;1.88;;;;;;;;;;5007705;28;20490;-69
2023/07/25 05:43:42;;;;;;;6.65;1.80;;;;;;;;;;4976006;28;20034;-69
2023/07/25 05:46:08;;;;;;;8.23;2.20;;;;;;;;;;4976619;28;20034;-69
2023/07/25 05:48:34;;;;;;;5.05;1.98;;;;;;;;;;4976561;28;20035;-68
2023/07/25 05:50:59;;;;;;;3.38;1.85;;;;;;;;;;4976475;28;20037;-69
2023/07/25 05:53:24;;;;;;;17.02;2.72;;;;;;;;;;4975802;28;20085;-69
2023/07/25 05:55:50;;;;;;;6.28;1.30;;;;;;;;;;4975932;28;20125;-69
2023/07/25 05:58:16;;;;;;;6.20;1.45;;;;;;;;;;4976240;28;20034;-69
2023/07/25 06:00:42;;;;;;;33.97;3.10;;;;;;;;;;4974517;28;20051;-69
2023/07/25 06:03:10;;;;;;;8.02;2.13;;;;;;;;;;4974885;28;20042;-69
2023/07/25 06:05:35;;;;;;;8.00;1.67;;;;;;;;;;4975135;28;20027;-69
2023/07/25 06:08:01;;;;;;;3.30;1.42;;;;;;;;;;4975843;28;20035;-68
2023/07/25 06:10:26;;;;;;;5.13;1.42;;;;;;;;;;4976237;28;20039;-69
2023/07/25 06:12:51;;;;;;;4.50;1.83;;;;;;;;;;4974932;28;20466;-69
2023/07/25 06:15:17;;;;;;;4.32;1.70;;;;;;;;;;4973456;28;21701;-69
2023/07/25 06:17:42;;;;;;;4.90;1.85;;;;;;;;;;4973318;28;20498;-69
2023/07/25 06:20:08;;;;;;;3.65;1.60;;;;;;;;;;4975955;28;20046;-69
2023/07/25 06:22:34;;;;;;;3.97;1.65;;;;;;;;;;4974795;28;20043;-69
2023/07/25 06:25:00;;;;;;;3.40;1.63;;;;;;;;;;4966939;28;20053;-69
2023/07/25 06:27:25;;;;;;;4.32;1.83;;;;;;;;;;4974675;28;20034;-69
2023/07/25 06:29:51;;;;;;;3.17;1.50;;;;;;;;;;4974489;28;20476;-70
2023/07/25 06:32:16;;;;;;;2.55;1.42;;;;;;;;;;4973616;28;20046;-69
2023/07/25 06:34:42;;;;;;;3.90;1.40;;;;;;;;;;4974382;28;20031;-69
2023/07/25 06:37:07;;;;;;;3.85;1.50;;;;;;;;;;4975878;28;20072;-69
2023/07/25 06:39:32;;;;;;;2.80;1.40;;;;;;;;;;4973840;28;20177;-69
2023/07/25 06:41:58;;;;;;;3.80;1.33;;;;;;;;;;4975348;28;20031;-69
2023/07/25 06:44:23;;;;;;;6.40;1.58;;;;;;;;;;4975032;28;20040;-69
2023/07/25 06:46:49;;;;;;;2.75;1.45;;;;;;;;;;4975575;28;20096;-69
2023/07/25 06:49:14;;;;;;;5.50;1.20;;;;;;;;;;4974880;28;20049;-69
2023/07/25 06:51:39;;;;;;;2.40;1.02;;;;;;;;;;4974398;28;20115;-69
2023/07/25 06:54:05;;;;;;;3.08;1.23;;;;;;;;;;4975393;28;20034;-69
2023/07/25 06:56:30;;;;;;;4.25;1.30;;;;;;;;;;4974872;28;20073;-69
2023/07/25 06:58:55;;;;;;;3.88;1.30;;;;;;;;;;4973909;28;20089;-69
2023/07/25 07:01:21;;;;;;;2.58;1.35;;;;;;;;;;4974968;28;20039;-69
2023/07/25 07:03:46;;;;;;;3.20;1.20;;;;;;;;;;4973453;28;20098;-70
2023/07/25 07:06:11;;;;;;;4.03;1.17;;;;;;;;;;4974305;28;20039;-69
2023/07/25 07:08:37;;;;;;;2.45;1.10;;;;;;;;;;4975271;28;20105;-69
2023/07/25 07:11:02;;;;;;;4.55;1.40;;;;;;;;;;4974656;28;20041;-69
2023/07/25 07:13:27;;;;;;;5.75;1.35;;;;;;;;;;4974999;28;20042;-69
2023/07/25 07:15:53;;;;;;;4.78;1.50;;;;;;;;;;4974765;28;20480;-69
2023/07/25 07:18:18;;;;;;;2.70;1.23;;;;;;;;;;4974913;28;20026;-69
2023/07/25 07:20:46;;;;;;;3.10;1.30;;;;;;;;;;4970689;28;20042;-68
2023/07/25 07:23:12;;;;;;;6.45;1.48;;;;;;;;;;4973836;28;20062;-69
2023/07/25 07:25:38;;;;;;;5.22;1.50;;;;;;;;;;4973369;28;20467;-69
2023/07/25 07:28:04;;;;;;;2.95;1.15;;;;;;;;;;4973371;28;20046;-69
2023/07/25 07:30:29;;;;;;;2.40;1.27;;;;;;;;;;4973536;28;20486;-69
2023/07/25 07:32:55;;;;;;;2.90;1.20;;;;;;;;;;4971472;28;20040;-69
2023/07/25 07:35:21;;;;;;;3.00;1.08;;;;;;;;;;4971526;28;20117;-69
2023/07/25 07:37:46;;;;;;;3.90;1.10;;;;;;;;;;4974380;28;20125;-69
2023/07/25 07:40:11;;;;;;;5.25;1.17;;;;;;;;;;4973955;28;20063;-69
2023/07/25 07:42:37;;;;;;;2.85;1.23;;;;;;;;;;4973966;28;20074;-69
2023/07/25 07:45:02;;;;;;;3.65;1.40;;;;;;;;;;4971180;28;20070;-69
2023/07/25 07:47:28;;;;;;;2.20;1.20;;;;;;;;;;4973107;28;20030;-69
2023/07/25 07:49:53;;;;;;;2.95;1.10;;;;;;;;;;4974434;28;20054;-69
2023/07/25 07:52:18;;;;;;;2.70;1.23;;;;;;;;;;4974521;28;20046;-69
2023/07/25 07:54:44;;;;;;;6.22;1.23;;;;;;;;;;4974479;28;20034;-69
2023/07/25 07:57:09;;;;;;;2.72;1.30;;;;;;;;;;4969379;28;20043;-69
2023/07/25 07:59:34;;;;;;;5.00;1.25;;;;;;;;;;4973134;28;20467;-69
2023/07/25 08:02:00;;;;;;;6.15;1.40;;;;;;;;;;4968922;28;20061;-69
2023/07/25 08:04:25;;;;;;;6.85;1.20;;;;;;;;;;4974280;28;20031;-69
2023/07/25 08:06:50;;;;;;;2.00;0.98;;;;;;;;;;4974213;28;20042;-69
2023/07/25 08:09:16;;;;;;;4.22;1.02;;;;;;;;;;4974215;28;20038;-69
2023/07/25 08:11:41;;;;;;;3.13;1.38;;;;;;;;;;4974240;28;20042;-69
2023/07/25 08:14:06;;;;;;;4.28;1.25;;;;;;;;;;4968544;28;20062;-69
2023/07/25 08:16:32;;;;;;;3.60;1.20;;;;;;;;;;4970572;28;20046;-69
2023/07/25 08:18:57;;;;;;;7.82;1.23;;;;;;;;;;4971314;28;20038;-69
2023/07/25 08:21:23;;;;;;;2.22;1.00;;;;;;;;;;4973535;28;20475;-69
2023/07/25 08:23:48;;;;;;;2.40;0.90;;;;;;;;;;4968557;28;20455;-69
2023/07/25 08:26:13;;;;;;;2.95;0.80;;;;;;;;;;4973787;28;20048;-69
2023/07/25 08:28:40;;;;;;;3.33;1.33;;;;;;;;;;4972355;28;20035;-69
2023/07/25 08:31:06;;;;;;;3.92;1.20;;;;;;;;;;4973426;28;20050;-69
2023/07/25 08:33:34;;;;;;;1.80;1.00;;;;;;;;;;4967984;28;20046;-69
2023/07/25 08:35:59;;;;;;;2.10;0.90;;;;;;;;;;4968921;28;20468;-69
2023/07/25 08:38:25;;;;;;;3.63;1.20;;;;;;;;;;4967554;28;20030;-69
2023/07/25 08:41:10;;;;;;;2.25;1.08;;;;;;;;;;4970509;28;20043;-67
2023/07/25 08:43:38;;;;;;;3.38;1.05;;;;;;;;;;4972103;28;20049;-68
2023/07/25 08:46:13;;;;;;;3.97;1.20;;;;;;;;;;4973068;28;20041;-67
2023/07/25 08:48:42;;;;;;;3.90;1.30;;;;;;;;;;4974142;28;20070;-67
2023/07/25 08:51:13;;;;;;;5.40;1.20;;;;;;;;;;4973627;28;20043;-68
2023/07/25 08:53:42;;;;;;;2.47;1.13;;;;;;;;;;4970232;28;20057;-69
2023/07/25 08:56:07;;;;;;;3.83;1.42;;;;;;;;;;4972563;28;20077;-69
2023/07/25 08:58:33;;;;;;;1.90;1.20;;;;;;;;;;4970363;28;20074;-69
2023/07/25 09:00:59;;;;;;;3.00;1.40;;;;;;;;;;4974340;28;20143;-68
2023/07/25 09:03:25;;;;;;;2.55;1.20;;;;;;;;;;4972391;28;20071;-69
2023/07/25 09:05:50;;;;;;;5.20;1.40;;;;;;;;;;4973917;28;20047;-70
2023/07/25 09:08:15;;;;;;;4.00;1.30;;;;;;;;;;4973810;28;20039;-70
2023/07/25 09:10:43;;;;;;;2.30;1.10;;;;;;;;;;4959572;28;20063;-70
2023/07/25 09:13:08;;;;;;;3.50;1.42;;;;;;;;;;4968329;28;20062;-70
2023/07/25 09:15:34;;;;;;;6.05;1.30;;;;;;;;;;4972832;28;20063;-69
2023/07/25 09:17:59;;;;;;;4.57;1.30;;;;;;;;;;4972936;28;20079;-70
2023/07/25 09:20:25;;;;;;;1.98;1.02;;;;;;;;;;4973394;28;20030;-69
2023/07/25 09:22:50;;;;;;;2.92;1.20;;;;;;;;;;4960057;28;20050;-70
2023/07/25 09:25:16;;;;;;;5.18;1.00;;;;;;;;;;4971448;28;20066;-69
2023/07/25 09:27:48;;;;;;;3.65;1.30;;;;;;;;;;4970913;28;20482;-69
2023/07/25 09:30:14;;;;;;;3.50;1.10;;;;;;;;;;4972085;28;20410;-70
2023/07/25 09:32:45;;;;;;;3.10;1.10;;;;;;;;;;4972560;28;20039;-70
2023/07/25 09:35:11;;;;;;;2.50;1.40;;;;;;;;;;4970758;28;20047;-68
2023/07/25 09:37:37;;;;;;;6.60;1.23;;;;;;;;;;4973413;28;20387;-70
2023/07/25 09:40:10;;;;;;;3.85;1.20;;;;;;;;;;4971488;28;20088;-69
2023/07/25 09:42:39;;;;;;;2.83;1.13;;;;;;;;;;4972828;28;20031;-70
2023/07/25 09:45:07;;;;;;;3.50;1.20;;;;;;;;;;4971816;28;20483;-71
2023/07/25 09:47:33;;;;;;;3.65;1.13;;;;;;;;;;4970782;28;20094;-69
2023/07/25 09:49:58;;;;;;;2.45;1.20;;;;;;;;;;4971467;28;20154;-70
2023/07/25 09:52:25;;;;;;;3.75;1.02;;;;;;;;;;4970373;28;20507;-69
2023/07/25 09:54:50;;;;;;;2.30;1.30;;;;;;;;;;4971341;28;20117;-70
2023/07/25 09:57:16;;;;;;;3.53;1.25;;;;;;;;;;4972621;28;20173;-70
2023/07/25 09:59:42;;;;;;;2.42;0.98;;;;;;;;;;4970580;28;20760;-69
2023/07/25 10:02:08;;;;;;;2.00;0.95;;;;;;;;;;4964778;28;20039;-70
2023/07/25 10:04:36;;;;;;;2.53;0.95;;;;;;;;;;4971339;28;20150;-70
2023/07/25 10:07:02;;;;;;;2.60;1.00;;;;;;;;;;4970105;28;20043;-69
2023/07/25 10:09:28;;;;;;;3.90;1.13;;;;;;;;;;4956995;28;20494;-70
2023/07/25 10:11:54;;;;;;;2.70;1.13;;;;;;;;;;4972655;28;20066;-69
2023/07/25 10:14:20;;;;;;;2.25;0.95;;;;;;;;;;4970304;28;20066;-69
2023/07/25 10:16:46;;;;;;;2.42;0.90;;;;;;;;;;4970410;28;20031;-69
2023/07/25 10:19:11;;;;;;;2.92;1.23;;;;;;;;;;4970332;28;20142;-70
2023/07/25 10:21:51;;;;;;;4.30;1.33;;;;;;;;;;4970690;28;20538;-70
2023/07/25 10:24:17;;;;;;;2.92;1.00;;;;;;;;;;4971650;28;20113;-70
2023/07/25 10:26:53;;;;;;;3.75;1.40;;;;;;;;;;4970190;28;20039;-69
2023/07/25 10:29:49;;;;;;;4.32;1.40;;;;;;;;;;4970294;28;20031;-69
2023/07/25 10:32:22;;;;;;;3.90;1.23;;;;;;;;;;4970786;28;20050;-69
2023/07/25 10:34:47;;;;;;;;;;;;;;;;;;4971868;28;20034;-69
2023/07/25 10:37:22;;;;;;;3.08;1.25;;;;;;;;;;4971717;28;19921;-70
2023/07/25 10:40:04;;;;;;;3.45;1.00;;;;;;;;;;4971821;28;20042;-69
2023/07/25 10:42:44;;;;;;;2.90;1.02;;;;;;;;;;4959800;28;20041;-69
2023/07/25 10:45:27;;;;;;;3.80;1.10;;;;;;;;;;4970188;28;20041;-70
2023/07/25 10:47:53;;;;;;;1.92;1.00;;;;;;;;;;4971410;28;20518;-69
2023/07/25 10:50:20;;;;;;;1.98;0.85;;;;;;;;;;4970912;28;20039;-70
2023/07/25 10:52:46;;;;;;;1.58;0.90;;;;;;;;;;4967602;28;20053;-69
2023/07/25 10:55:12;;;;;;;1.83;0.85;;;;;;;;;;4969945;28;20046;-69
2023/07/25 10:57:37;;;;;;;1.58;0.80;;;;;;;;;;4968493;28;20080;-69
2023/07/25 11:00:10;;;;;;;1.90;0.90;;;;;;;;;;4971509;28;20062;-69
2023/07/25 11:02:36;;;;;;;3.13;0.80;;;;;;;;;;4967547;28;20081;-70
2023/07/25 11:05:13;;;;;;;1.75;0.80;;;;;;;;;;4969845;28;20109;-69
2023/07/25 11:07:58;;;;;;;2.78;1.08;;;;;;;;;;4971178;28;20081;-69
2023/07/25 11:10:28;;;;;;;2.60;0.70;;;;;;;;;;4960629;28;20043;-69
2023/07/25 11:12:55;;;;;;;3.72;0.88;;;;;;;;;;4969347;28;20525;-69
2023/07/25 11:15:21;;;;;;;1.83;0.70;;;;;;;;;;4969029;28;20043;-70
2023/07/25 11:17:48;;;;;;;1.70;0.80;;;;;;;;;;4971087;28;20042;-69
2023/07/25 11:20:18;;;;;;;1.95;0.80;;;;;;;;;;4969636;28;20049;-69
2023/07/25 11:22:50;;;;;;;1.45;0.85;;;;;;;;;;4971321;28;20026;-69
2023/07/25 11:25:16;;;;;;;2.28;0.82;;;;;;;;;;4970507;28;20578;-69
2023/07/25 11:27:46;;;;;;;1.58;0.80;;;;;;;;;;4967868;28;20090;-69
2023/07/25 11:30:19;;;;;;;2.28;0.80;;;;;;;;;;4968938;28;20241;-70
2023/07/25 11:32:48;;;;;;;;;;;;;;;;;;4971533;28;20047;-69
2023/07/25 11:35:15;;;;;;;2.20;0.80;;;;;;;;;;4962059;28;19921;-69
2023/07/25 11:37:41;;;;;;;0.93;0.60;;;;;;;;;;4968587;28;20043;-69
2023/07/25 11:40:17;;;;;;;2.17;0.80;;;;;;;;;;4956218;28;20038;-69
2023/07/25 11:42:44;;;;;;;2.85;0.75;;;;;;;;;;4966051;28;20494;-69
2023/07/25 11:45:11;;;;;;;1.88;0.73;;;;;;;;;;4970036;28;20042;-69
2023/07/25 11:47:38;;;;;;;1.33;0.77;;;;;;;;;;4968671;28;20582;-69
2023/07/25 11:50:05;;;;;;;2.25;0.70;;;;;;;;;;4968490;28;20500;-70
2023/07/25 11:52:32;;;;;;;1.60;0.70;;;;;;;;;;4981157;28;20474;-69
2023/07/25 11:54:58;;;;;;;0.90;0.60;;;;;;;;;;4954081;28;20089;-69
2023/07/25 11:57:24;;;;;;;2.63;0.80;;;;;;;;;;4969626;28;20043;-69
2023/07/25 11:59:52;;;;;;;1.88;0.73;;;;;;;;;;4967921;28;20185;-69
2023/07/25 12:02:19;;;;;;;1.60;0.73;;;;;;;;;;4969434;28;20042;-69
2023/07/25 12:04:45;;;;;;;3.60;0.93;;;;;;;;;;4968371;28;20031;-69
2023/07/25 12:07:13;;;;;;;1.90;0.60;;;;;;;;;;4968682;28;20035;-69
2023/07/25 12:09:39;;;;;;;2.35;0.90;;;;;;;;;;4967863;28;20376;-70
2023/07/25 12:12:11;;;;;;;1.50;0.70;;;;;;;;;;4966327;28;20049;-69
2023/07/25 12:14:36;;;;;;;2.47;0.80;;;;;;;;;;4968880;28;20038;-69
2023/07/25 12:17:03;;;;;;;3.38;0.90;;;;;;;;;;4968135;28;20037;-69
2023/07/25 12:19:31;;;;;;;1.75;0.80;;;;;;;;;;4968589;28;20033;-69
2023/07/25 12:22:04;;;;;;;2.47;0.80;;;;;;;;;;4969474;28;20105;-69
2023/07/25 12:24:39;;;;;;;1.13;0.63;;;;;;;;;;4968971;28;20439;-69
2023/07/25 12:27:15;;;;;;;2.15;0.70;;;;;;;;;;4966019;28;20541;-70
2023/07/25 12:29:40;;;;;;;1.83;0.73;;;;;;;;;;4969241;28;20046;-70
2023/07/25 12:32:06;;;;;;;1.65;0.70;;;;;;;;;;4969939;28;20039;-70
2023/07/25 12:34:31;;;;;;;1.65;0.80;;;;;;;;;;4968710;28;20047;-70
2023/07/25 12:36:56;;;;;;;2.20;0.80;;;;;;;;;;4965193;28;20066;-69
2023/07/25 12:39:22;;;;;;;1.73;0.80;;;;;;;;;;4969177;28;20066;-70
2023/07/25 12:41:47;;;;;;;2.65;1.00;;;;;;;;;;4969617;28;20129;-68
2023/07/25 12:44:13;;;;;;;1.73;0.90;;;;;;;;;;4965093;28;20031;-70
2023/07/25 12:46:39;;;;;;;4.78;0.90;;;;;;;;;;4951291;28;20394;-69
2023/07/25 12:49:04;;;;;;;2.60;0.90;;;;;;;;;;4963863;28;20066;-69
2023/07/25 12:51:29;;;;;;;1.48;0.80;;;;;;;;;;4973250;28;20045;-69
2023/07/25 12:53:55;;;;;;;2.83;0.93;;;;;;;;;;4972785;28;20122;-69
2023/07/25 12:56:20;;;;;;;2.05;0.80;;;;;;;;;;4972464;28;20050;-69
2023/07/25 12:58:45;;;;;;;2.22;0.90;;;;;;;;;;4972505;28;20118;-68
2023/07/25 13:01:11;;;;;;;3.60;1.00;;;;;;;;;;4971581;28;20089;-68
2023/07/25 13:03:40;;;;;;;9.57;1.30;;;;;;;;;;4971610;28;20050;-69
2023/07/25 13:06:05;;;;;;;1.90;0.90;;;;;;;;;;4972564;28;20085;-68
2023/07/25 13:08:30;;;;;;;2.70;1.00;;;;;;;;;;4971430;28;20503;-69
2023/07/25 13:10:56;;;;;;;1.85;1.00;;;;;;;;;;4972544;28;20042;-69
2023/07/25 13:13:21;;;;;;;1.52;0.90;;;;;;;;;;4973578;28;20045;-70
2023/07/25 13:15:46;;;;;;;2.53;1.27;;;;;;;;;;4972156;28;20125;-69
2023/07/25 13:18:12;;;;;;;2.08;0.90;;;;;;;;;;4973094;28;20035;-69
2023/07/25 13:20:37;;;;;;;1.17;0.82;;;;;;;;;;4972451;28;20419;-69
2023/07/25 13:23:03;;;;;;;1.73;0.80;;;;;;;;;;4971752;28;20406;-69
2023/07/25 13:25:28;;;;;;;2.33;1.00;;;;;;;;;;4971181;28;20038;-69
2023/07/25 13:27:53;;;;;;;3.67;1.10;;;;;;;;;;4972804;28;20086;-69
2023/07/25 13:30:18;;;;;;;2.70;1.10;;;;;;;;;;4971980;28;20031;-69
2023/07/25 13:32:44;;;;;;;3.25;1.00;;;;;;;;;;4972567;28;20042;-69
2023/07/25 13:35:09;;;;;;;1.88;0.98;;;;;;;;;;4971940;28;20118;-68
2023/07/25 13:37:35;;;;;;;1.92;0.82;;;;;;;;;;4970878;28;20117;-69
2023/07/25 13:40:00;;;;;;;2.67;1.00;;;;;;;;;;4973234;28;20052;-69
2023/07/25 13:42:25;;;;;;;1.85;0.82;;;;;;;;;;4972212;28;20039;-69
2023/07/25 13:44:51;;;;;;;3.20;0.98;;;;;;;;;;4971811;28;20042;-69
2023/07/25 13:47:16;;;;;;;2.38;0.90;;;;;;;;;;4971118;28;20074;-68
2023/07/25 13:49:42;;;;;;;2.42;0.80;;;;;;;;;;4971212;28;20430;-69
2023/07/25 13:52:07;;;;;;;2.85;1.00;;;;;;;;;;4969270;28;20043;-69
2023/07/25 13:54:33;;;;;;;1.55;0.85;;;;;;;;;;4972036;28;20038;-69
2023/07/25 13:56:59;;;;;;;2.67;1.00;;;;;;;;;;4971946;28;20039;-68
2023/07/25 13:59:24;;;;;;;3.40;1.45;;;;;;;;;;4969675;28;20042;-69
2023/07/25 14:01:50;;;;;;;3.03;1.00;;;;;;;;;;4972133;28;20403;-69
2023/07/25 14:04:15;;;;;;;2.97;1.20;;;;;;;;;;4971538;28;20039;-69
2023/07/25 14:06:41;;;;;;;3.90;1.02;;;;;;;;;;4972661;28;20038;-69
2023/07/25 14:09:06;;;;;;;9.95;1.13;;;;;;;;;;4967010;28;20122;-69
2023/07/25 14:11:32;;;;;;;2.00;1.10;;;;;;;;;;4971539;28;20177;-69
2023/07/25 14:13:57;;;;;;;3.72;1.08;;;;;;;;;;4971939;28;20494;-70
2023/07/25 14:16:22;;;;;;;2.13;1.10;;;;;;;;;;4971562;28;20046;-69
2023/07/25 14:18:48;;;;;;;2.22;0.90;;;;;;;;;;4970261;28;20034;-70
2023/07/25 14:21:14;;;;;;;1.98;1.10;;;;;;;;;;4971827;28;20387;-69
2023/07/25 14:23:39;;;;;;;1.90;0.90;;;;;;;;;;4970476;28;20038;-69
2023/07/25 14:26:05;;;;;;;2.97;1.20;;;;;;;;;;4970038;28;20033;-69
2023/07/25 14:28:30;;;;;;;2.72;0.90;;;;;;;;;;4971392;28;20271;-69
2023/07/25 14:30:55;;;;;;;3.22;1.13;;;;;;;;;;4970975;28;20097;-69
2023/07/25 14:33:21;;;;;;;1.77;0.90;;;;;;;;;;4972389;28;20035;-69
2023/07/25 14:35:47;;;;;;;3.75;1.30;;;;;;;;;;4970436;28;20133;-69